createdAt,value
2018-07-12T00:00:20.310Z,27.37
2018-07-12T00:02:51.456Z,29.33
2018-07-12T00:05:19.935Z,26.40
2018-07-12T00:07:48.263Z,29.90
2018-07-12T00:13:09.579Z,31.63
2018-07-12T00:15:43.121Z,31.70
2018-07-12T00:18:16.718Z,30.60
2018-07-12T00:20:55.220Z,32.20
2018-07-12T00:23:35.040Z,35.47
2018-07-12T00:26:05.887Z,36.07
2018-07-12T00:28:35.190Z,34.47
2018-07-12T00:31:24.090Z,30.37
2018-07-12T00:33:57.408Z,32.43
2018-07-12T00:36:40.240Z,33.97
2018-07-12T00:42:03.414Z,31.30
2018-07-12T00:44:30.900Z,34.10
2018-07-12T00:47:01.430Z,41.93
2018-07-12T00:49:42.018Z,32.43
2018-07-12T00:52:09.365Z,39.63
2018-07-12T00:54:45.273Z,36.13
2018-07-12T00:57:20.066Z,40.03
2018-07-12T00:59:50.965Z,44.53
2018-07-12T01:02:20.287Z,36.03
2018-07-12T01:04:47.741Z,36.87
2018-07-12T01:10:16.382Z,35.13
2018-07-12T01:15:37.463Z,38.83
2018-07-12T01:18:05.888Z,44.63
2018-07-12T01:20:48.234Z,37.33
2018-07-12T01:26:08.484Z,40.33
2018-07-12T01:28:43.886Z,44.57
2018-07-12T01:34:03.810Z,42.97
2018-07-12T01:36:31.189Z,33.83
2018-07-12T01:38:58.650Z,39.67
2018-07-12T01:41:26.108Z,41.50
2018-07-12T01:43:53.561Z,48.87
2018-07-12T01:46:21.019Z,42.30
2018-07-12T01:48:48.487Z,42.43
2018-07-12T01:51:15.937Z,43.67
2018-07-12T01:53:43.375Z,42.00
2018-07-12T01:56:13.026Z,40.90
2018-07-12T01:58:42.471Z,43.17
2018-07-12T02:01:11.815Z,39.57
2018-07-12T02:03:58.343Z,37.97
2018-07-12T02:06:32.431Z,42.13
2018-07-12T02:09:01.723Z,36.30
2018-07-12T02:11:50.421Z,40.63
2018-07-12T02:14:19.906Z,40.47
2018-07-12T02:16:55.310Z,40.00
2018-07-12T02:19:27.083Z,45.03
2018-07-12T02:21:56.399Z,43.47
2018-07-12T02:24:35.173Z,38.97
2018-07-12T02:27:08.793Z,42.40
2018-07-12T02:29:42.371Z,47.97
2018-07-12T02:32:10.795Z,43.63
2018-07-12T02:37:35.529Z,44.00
2018-07-12T02:40:09.997Z,45.97
2018-07-12T02:42:47.583Z,39.57
2018-07-12T02:45:14.884Z,39.50
2018-07-12T02:48:01.529Z,41.50
2018-07-12T02:50:32.465Z,44.07
2018-07-12T02:53:10.956Z,41.10
2018-07-12T02:55:38.433Z,41.90
2018-07-12T02:58:05.908Z,48.40
2018-07-12T03:03:23.229Z,44.23
2018-07-12T03:05:53.749Z,46.97
2018-07-12T03:08:34.325Z,48.97
2018-07-12T03:17:10.528Z,49.83
2018-07-12T03:19:45.608Z,46.37
2018-07-12T03:22:26.257Z,42.00
2018-07-12T03:24:55.312Z,50.23
2018-07-12T03:27:22.800Z,51.10
2018-07-12T03:32:48.422Z,44.00
2018-07-12T03:35:34.834Z,44.27
2018-07-12T03:38:15.220Z,50.23
2018-07-12T03:40:42.536Z,47.77
2018-07-12T03:43:13.900Z,45.03
2018-07-12T03:45:52.361Z,41.97
2018-07-12T03:48:45.010Z,40.20
2018-07-12T03:51:19.546Z,44.93
2018-07-12T03:53:50.420Z,42.53
2018-07-12T03:56:21.933Z,45.77
2018-07-12T03:58:50.232Z,47.73
2018-07-12T04:01:23.241Z,46.03
2018-07-12T04:04:00.802Z,53.37
2018-07-12T04:06:31.376Z,51.77
2018-07-12T04:09:04.903Z,45.87
2018-07-12T04:11:37.661Z,42.63
2018-07-12T04:14:12.111Z,47.90
2018-07-12T04:16:39.412Z,51.60
2018-07-12T04:19:06.810Z,44.47
2018-07-12T04:21:37.300Z,50.00
2018-07-12T04:24:05.703Z,42.70
2018-07-12T04:26:33.168Z,43.23
2018-07-12T04:29:09.603Z,47.30
2018-07-12T04:31:38.129Z,46.07
2018-07-12T04:34:17.278Z,47.87
2018-07-12T04:36:48.184Z,52.53
2018-07-12T04:39:22.664Z,48.13
2018-07-12T04:41:50.195Z,50.77
2018-07-12T04:44:17.765Z,49.90
2018-07-12T04:46:45.086Z,50.57
2018-07-12T04:49:12.556Z,59.00
2018-07-12T04:51:41.259Z,51.40
2018-07-12T04:54:10.069Z,51.47
2018-07-12T04:56:37.414Z,56.17
2018-07-12T04:59:04.844Z,50.57
2018-07-12T05:01:32.355Z,59.40
2018-07-12T05:03:59.848Z,59.67
2018-07-12T05:06:34.584Z,57.40
2018-07-12T05:09:12.149Z,54.57
2018-07-12T05:11:41.508Z,60.07
2018-07-12T05:14:12.069Z,62.47
2018-07-12T05:16:39.475Z,58.67
2018-07-12T05:19:14.312Z,52.43
2018-07-12T05:21:47.573Z,54.50
2018-07-12T05:24:30.343Z,52.80
2018-07-12T05:27:19.030Z,47.20
2018-07-12T05:29:57.205Z,46.23
2018-07-12T05:32:38.933Z,63.40
2018-07-12T05:35:07.239Z,52.43
2018-07-12T05:37:39.225Z,45.97
2018-07-12T05:40:11.937Z,46.97
2018-07-12T05:42:40.319Z,53.47
2018-07-12T05:45:09.917Z,52.37
2018-07-12T05:47:38.319Z,51.53
2018-07-12T05:50:11.015Z,45.13
2018-07-12T05:52:39.691Z,44.47
2018-07-12T05:55:08.633Z,45.33
2018-07-12T05:57:38.619Z,39.40
2018-07-12T06:00:14.327Z,54.10
2018-07-12T06:03:02.703Z,46.43
2018-07-12T06:05:43.001Z,40.80
2018-07-12T06:08:18.185Z,40.33
2018-07-12T06:10:46.842Z,42.03
2018-07-12T06:13:31.243Z,41.87
2018-07-12T06:16:01.757Z,35.30
2018-07-12T06:21:24.704Z,37.90
2018-07-12T06:23:57.603Z,33.80
2018-07-12T06:26:34.286Z,33.93
2018-07-12T06:29:20.487Z,37.40
2018-07-12T06:31:55.619Z,36.73
2018-07-12T06:34:31.441Z,38.20
2018-07-12T06:37:01.965Z,31.43
2018-07-12T06:42:24.883Z,31.00
2018-07-12T06:44:53.463Z,34.27
2018-07-12T06:47:23.075Z,38.30
2018-07-12T06:49:52.699Z,32.20
2018-07-12T06:52:23.189Z,37.33
2018-07-12T06:54:54.972Z,33.47
2018-07-12T06:57:41.811Z,31.43
2018-07-12T07:00:16.609Z,28.43
2018-07-12T07:02:52.367Z,36.17
2018-07-12T07:05:26.308Z,30.80
2018-07-12T07:07:59.642Z,35.50
2018-07-12T07:10:30.182Z,35.10
2018-07-12T07:13:16.929Z,29.60
2018-07-12T07:15:53.893Z,28.77
2018-07-12T07:18:22.361Z,28.33
2018-07-12T07:21:13.715Z,24.07
2018-07-12T07:23:54.961Z,26.37
2018-07-12T07:26:28.931Z,26.07
2018-07-12T07:28:58.507Z,24.87
2018-07-12T07:31:40.064Z,26.63
2018-07-12T07:34:16.209Z,26.80
2018-07-12T07:37:07.600Z,27.93
2018-07-12T07:39:49.770Z,27.77
2018-07-12T07:42:18.143Z,24.77
2018-07-12T07:44:59.138Z,22.07
2018-07-12T07:47:27.503Z,28.17
2018-07-12T07:49:57.125Z,28.97
2018-07-12T07:52:25.494Z,29.47
2018-07-12T07:54:53.846Z,22.83
2018-07-12T07:57:22.290Z,19.73
2018-07-12T07:59:57.721Z,21.13
2018-07-12T08:02:44.246Z,26.20
2018-07-12T08:05:13.086Z,23.37
2018-07-12T08:07:46.594Z,20.70
2018-07-12T08:10:29.011Z,22.13
2018-07-12T08:13:09.418Z,23.67
2018-07-12T08:18:31.982Z,20.27
2018-07-12T08:21:10.516Z,18.33
2018-07-12T08:23:39.179Z,15.97
2018-07-12T08:26:07.911Z,17.03
2018-07-12T08:28:50.060Z,17.33
2018-07-12T08:31:19.715Z,18.77
2018-07-12T08:34:00.318Z,17.10
2018-07-12T08:36:40.941Z,17.27
2018-07-12T08:39:27.819Z,18.77
2018-07-12T08:41:56.449Z,19.27
2018-07-12T08:44:39.602Z,22.57
2018-07-12T08:47:28.318Z,22.30
2018-07-12T08:49:57.917Z,19.13
2018-07-12T08:52:26.606Z,19.50
2018-07-12T08:54:55.233Z,19.47
2018-07-12T08:57:47.005Z,16.40
2018-07-12T09:03:09.902Z,20.77
2018-07-12T09:05:50.209Z,19.80
2018-07-12T09:08:20.776Z,24.97
2018-07-12T09:10:49.511Z,21.07
2018-07-12T09:13:29.473Z,22.07
2018-07-12T09:15:57.907Z,23.80
2018-07-12T09:18:29.652Z,22.23
2018-07-12T09:20:59.275Z,20.53
2018-07-12T09:23:28.033Z,19.20
2018-07-12T09:25:56.629Z,17.57
2018-07-12T09:28:30.575Z,17.13
2018-07-12T09:31:01.051Z,19.30
2018-07-12T09:33:29.819Z,19.30
2018-07-12T09:36:11.614Z,15.73
2018-07-12T09:38:42.160Z,21.93
2018-07-12T09:44:04.607Z,15.93
2018-07-12T09:46:41.137Z,14.50
2018-07-12T09:49:15.132Z,16.90
2018-07-12T09:51:52.033Z,18.83
2018-07-12T09:54:20.700Z,17.60
2018-07-12T10:01:21.837Z,15.07
2018-07-12T10:03:52.465Z,12.90
2018-07-12T10:06:25.939Z,16.10
2018-07-12T10:08:59.883Z,19.00
2018-07-12T10:11:47.729Z,22.67
2018-07-12T10:14:21.547Z,20.53
2018-07-12T10:16:55.144Z,16.63
2018-07-12T10:19:27.522Z,19.60
2018-07-12T10:22:10.754Z,20.40
2018-07-12T10:24:56.585Z,17.10
2018-07-12T10:27:25.241Z,13.17
2018-07-12T10:29:59.162Z,18.37
2018-07-12T10:32:40.403Z,14.07
2018-07-12T10:35:12.268Z,15.90
2018-07-12T10:37:58.903Z,13.57
2018-07-12T10:40:38.727Z,14.33
2018-07-12T10:43:07.079Z,17.03
2018-07-12T10:45:35.458Z,15.97
2018-07-12T10:48:06.219Z,17.27
2018-07-12T10:50:40.907Z,13.03
2018-07-12T10:53:11.395Z,12.43
2018-07-12T10:55:41.939Z,15.33
2018-07-12T10:58:14.620Z,14.83
2018-07-12T11:00:43.329Z,14.07
2018-07-12T11:03:30.201Z,13.83
2018-07-12T11:06:12.732Z,14.80
2018-07-12T11:08:41.320Z,16.63
2018-07-12T11:11:24.159Z,10.60
2018-07-12T11:14:05.686Z,10.47
2018-07-12T11:16:40.868Z,12.63
2018-07-12T11:24:57.580Z,12.70
2018-07-12T11:27:29.665Z,9.97
2018-07-12T11:29:59.138Z,10.70
2018-07-12T11:32:29.781Z,10.90
2018-07-12T11:37:59.423Z,13.93
2018-07-12T11:40:27.809Z,11.20
2018-07-12T11:42:58.400Z,12.40
2018-07-12T11:45:27.055Z,9.93
2018-07-12T11:47:55.741Z,10.13
2018-07-12T11:50:24.407Z,12.50
2018-07-12T11:52:52.782Z,11.00
2018-07-12T11:55:22.397Z,13.43
2018-07-12T11:57:50.778Z,12.87
2018-07-12T12:00:35.411Z,11.40
2018-07-12T12:03:07.892Z,10.97
2018-07-12T12:05:49.983Z,9.13
2018-07-12T12:08:30.056Z,12.23
2018-07-12T12:11:12.261Z,9.80
2018-07-12T12:13:45.077Z,10.83
2018-07-12T12:16:15.575Z,13.40
2018-07-12T12:18:49.582Z,13.27
2018-07-12T12:21:21.165Z,10.33
2018-07-12T12:23:49.821Z,6.83
2018-07-12T12:26:24.963Z,8.00
2018-07-12T12:28:55.580Z,11.90
2018-07-12T12:31:35.013Z,10.67
2018-07-12T12:34:07.961Z,12.93
2018-07-12T12:36:44.321Z,8.07
2018-07-12T12:39:17.657Z,9.43
2018-07-12T12:44:56.405Z,6.73
2018-07-12T12:47:29.098Z,9.23
2018-07-12T12:49:59.707Z,7.87
2018-07-12T12:52:30.196Z,6.37
2018-07-12T12:54:58.861Z,9.87
2018-07-12T12:57:27.243Z,9.57
2018-07-12T12:59:59.335Z,11.37
2018-07-12T13:05:20.652Z,8.23
2018-07-12T13:07:53.037Z,9.57
2018-07-12T13:10:24.845Z,8.07
2018-07-12T13:12:55.288Z,10.13
2018-07-12T13:15:23.770Z,8.97
2018-07-12T13:18:09.890Z,8.27
2018-07-12T13:20:38.279Z,9.87
2018-07-12T13:23:08.821Z,11.90
2018-07-12T13:25:44.617Z,8.90
2018-07-12T13:31:27.130Z,6.37
2018-07-12T13:33:57.665Z,7.93
2018-07-12T13:36:27.244Z,7.57
2018-07-12T13:41:52.573Z,9.07
2018-07-12T13:44:22.871Z,8.63
2018-07-12T13:46:53.405Z,8.97
2018-07-12T13:49:22.067Z,11.37
2018-07-12T13:51:53.070Z,9.20
2018-07-12T13:54:27.673Z,7.57
2018-07-12T13:56:57.261Z,7.73
2018-07-12T13:59:27.815Z,7.40
2018-07-12T14:02:00.171Z,10.37
2018-07-12T14:04:40.253Z,8.13
2018-07-12T14:07:08.935Z,7.07
2018-07-12T14:09:38.573Z,9.03
2018-07-12T14:12:08.238Z,7.13
2018-07-12T14:14:43.409Z,8.20
2018-07-12T14:17:12.013Z,8.20
2018-07-12T14:19:40.702Z,6.83
2018-07-12T14:22:11.189Z,7.97
2018-07-12T14:24:39.645Z,7.53
2018-07-12T14:27:08.394Z,10.03
2018-07-12T14:29:37.000Z,7.37
2018-07-12T14:32:05.661Z,9.13
2018-07-12T14:34:36.157Z,12.27
2018-07-12T14:37:06.852Z,9.00
2018-07-12T14:39:43.048Z,6.97
2018-07-12T14:42:12.662Z,8.37
2018-07-12T14:47:33.721Z,6.47
2018-07-12T14:50:21.455Z,8.77
2018-07-12T14:52:51.988Z,9.27
2018-07-12T14:55:24.278Z,6.57
2018-07-12T14:57:54.038Z,9.40
2018-07-12T15:00:24.063Z,6.00
2018-07-12T15:02:54.828Z,7.90
2018-07-12T15:05:23.535Z,5.63
2018-07-12T15:07:52.158Z,16.73
2018-07-12T15:10:28.539Z,6.90
2018-07-12T15:12:57.164Z,9.17
2018-07-12T15:15:38.718Z,9.67
2018-07-12T15:18:21.229Z,8.43
2018-07-12T15:21:01.619Z,7.17
2018-07-12T15:23:30.387Z,8.67
2018-07-12T15:26:00.982Z,8.97
2018-07-12T15:31:39.714Z,10.07
2018-07-12T15:34:08.009Z,6.83
2018-07-12T15:36:49.921Z,7.80
2018-07-12T15:39:24.141Z,9.73
2018-07-12T15:41:57.381Z,8.30
2018-07-12T15:44:38.005Z,7.63
2018-07-12T15:47:07.479Z,9.30
2018-07-12T15:49:36.514Z,9.53
2018-07-12T15:52:09.347Z,10.50
2018-07-12T15:54:47.289Z,9.40
2018-07-12T15:57:23.111Z,8.00
2018-07-12T15:59:58.586Z,9.67
2018-07-12T16:02:30.935Z,8.77
2018-07-12T16:05:05.135Z,10.87
2018-07-12T16:07:39.441Z,9.37
2018-07-12T16:10:08.960Z,11.13
2018-07-12T16:12:54.797Z,13.17
2018-07-12T16:15:26.792Z,8.93
2018-07-12T16:17:59.357Z,8.53
2018-07-12T16:20:28.072Z,10.03
2018-07-12T16:22:56.692Z,7.00
2018-07-12T16:25:27.254Z,12.13
2018-07-12T16:27:55.903Z,14.00
2018-07-12T16:30:28.075Z,13.83
2018-07-12T16:32:57.657Z,10.20
2018-07-12T16:35:26.330Z,10.13
2018-07-12T16:37:54.973Z,12.73
2018-07-12T16:40:23.695Z,11.13
2018-07-12T16:42:52.478Z,8.83
2018-07-12T16:45:21.198Z,9.03
2018-07-12T16:47:49.770Z,10.47
2018-07-12T16:50:22.591Z,11.47
2018-07-12T16:52:53.300Z,13.90
2018-07-12T16:55:24.168Z,12.80
2018-07-12T16:57:58.978Z,11.63
2018-07-12T17:00:29.372Z,8.50
2018-07-12T17:03:03.708Z,12.77
2018-07-12T17:05:37.930Z,8.83
2018-07-12T17:08:20.931Z,13.53
2018-07-12T17:10:54.613Z,12.27
2018-07-12T17:13:23.239Z,12.43
2018-07-12T17:16:08.513Z,9.97
2018-07-12T17:18:40.342Z,11.73
2018-07-12T17:21:10.814Z,11.03
2018-07-12T17:23:40.576Z,11.57
2018-07-12T17:26:10.830Z,10.30
2018-07-12T17:28:42.682Z,10.80
2018-07-12T17:31:15.096Z,7.30
2018-07-12T17:33:55.209Z,8.50
2018-07-12T17:36:26.360Z,9.67
2018-07-12T17:39:06.571Z,11.47
2018-07-12T17:41:37.647Z,9.87
2018-07-12T17:44:10.557Z,8.33
2018-07-12T17:46:41.147Z,9.97
2018-07-12T17:49:09.687Z,11.63
2018-07-12T17:51:42.422Z,9.30
2018-07-12T17:54:21.862Z,10.93
2018-07-12T17:57:02.946Z,10.73
2018-07-12T17:59:43.141Z,8.00
2018-07-12T18:02:13.077Z,8.20
2018-07-12T18:04:54.100Z,7.63
2018-07-12T18:07:22.394Z,7.37
2018-07-12T18:09:54.867Z,10.63
2018-07-12T18:12:24.095Z,7.70
2018-07-12T18:14:53.769Z,7.63
2018-07-12T18:17:24.763Z,8.73
2018-07-12T18:19:56.024Z,8.83
2018-07-12T18:22:30.629Z,8.57
2018-07-12T18:25:04.926Z,9.07
2018-07-12T18:27:43.970Z,7.40
2018-07-12T18:30:23.665Z,7.97
2018-07-12T18:32:56.984Z,8.97
2018-07-12T18:35:26.583Z,7.53
2018-07-12T18:38:00.717Z,8.10
2018-07-12T18:40:30.870Z,8.37
2018-07-12T18:43:04.331Z,7.47
2018-07-12T18:45:34.517Z,6.50
2018-07-12T18:48:07.649Z,9.77
2018-07-12T18:50:38.369Z,8.47
2018-07-12T18:53:08.839Z,9.80
2018-07-12T18:55:38.598Z,12.93
2018-07-12T18:58:11.307Z,8.77
2018-07-12T19:00:40.877Z,9.03
2018-07-12T19:03:11.057Z,10.43
2018-07-12T19:05:39.744Z,8.57
2018-07-12T19:08:08.441Z,8.90
2018-07-12T19:10:38.362Z,10.73
2018-07-12T19:13:07.124Z,8.97
2018-07-12T19:15:35.691Z,8.20
2018-07-12T19:18:07.204Z,10.43
2018-07-12T19:20:42.601Z,9.53
2018-07-12T19:23:11.525Z,11.70
2018-07-12T19:25:41.219Z,6.80
2018-07-12T19:28:10.734Z,9.17
2018-07-12T19:30:43.803Z,6.27
2018-07-12T19:33:13.953Z,7.50
2018-07-12T19:35:46.741Z,11.63
2018-07-12T19:38:18.979Z,13.13
2018-07-12T19:40:50.803Z,9.07
2018-07-12T19:43:22.575Z,7.27
2018-07-12T19:46:06.948Z,12.33
2018-07-12T19:48:36.480Z,7.80
2018-07-12T19:51:06.195Z,10.23
2018-07-12T19:53:35.708Z,13.13
2018-07-12T19:56:10.512Z,9.17
2018-07-12T19:58:39.567Z,9.80
2018-07-12T20:01:08.544Z,10.13
2018-07-12T20:03:39.406Z,8.33
2018-07-12T20:06:30.501Z,8.07
2018-07-12T20:09:13.428Z,11.53
2018-07-12T20:11:42.687Z,10.97
2018-07-12T20:14:17.182Z,13.60
2018-07-12T20:16:58.402Z,10.67
2018-07-12T20:19:28.459Z,9.77
2018-07-12T20:21:58.201Z,10.80
2018-07-12T20:24:37.063Z,10.67
2018-07-12T20:27:06.814Z,9.57
2018-07-12T20:29:35.530Z,9.97
2018-07-12T20:32:04.777Z,9.83
2018-07-12T20:34:41.012Z,8.57
2018-07-12T20:37:14.706Z,10.03
2018-07-12T20:39:43.494Z,13.03
2018-07-12T20:42:12.457Z,9.40
2018-07-12T20:44:42.190Z,10.93
2018-07-12T20:47:15.531Z,13.53
2018-07-12T20:49:44.852Z,7.67
2018-07-12T20:52:20.270Z,9.87
2018-07-12T20:54:49.630Z,16.93
2018-07-12T20:57:20.446Z,14.07
2018-07-12T20:59:54.935Z,13.93
2018-07-12T21:02:23.756Z,14.30
2018-07-12T21:04:58.080Z,13.53
2018-07-12T21:07:34.282Z,13.37
2018-07-12T21:10:04.903Z,14.43
2018-07-12T21:12:35.752Z,18.73
2018-07-12T21:15:05.399Z,9.97
2018-07-12T21:17:33.876Z,13.67
2018-07-12T21:20:02.657Z,12.47
2018-07-12T21:22:41.890Z,13.03
2018-07-12T21:25:10.729Z,11.87
2018-07-12T21:27:42.504Z,11.10
2018-07-12T21:30:13.128Z,11.97
2018-07-12T21:32:45.388Z,13.97
2018-07-12T21:35:15.978Z,14.33
2018-07-12T21:37:44.653Z,11.63
2018-07-12T21:40:14.221Z,12.60
2018-07-12T21:42:43.120Z,16.00
2018-07-12T21:45:11.597Z,15.30
2018-07-12T21:47:42.122Z,12.13
2018-07-12T21:50:10.823Z,15.27
2018-07-12T21:52:47.455Z,16.53
2018-07-12T21:55:17.229Z,13.13
2018-07-12T21:57:45.900Z,14.70
2018-07-12T22:00:15.373Z,13.47
2018-07-12T22:02:47.700Z,14.43
2018-07-12T22:05:30.174Z,14.57
2018-07-12T22:08:20.710Z,14.17
2018-07-12T22:11:06.550Z,11.83
2018-07-12T22:13:37.914Z,11.27
2018-07-12T22:16:12.879Z,12.33
2018-07-12T22:18:41.243Z,14.37
2018-07-12T22:21:14.035Z,14.80
2018-07-12T22:23:46.398Z,19.03
2018-07-12T22:26:20.411Z,14.47
2018-07-12T22:29:03.018Z,14.90
2018-07-12T22:31:36.998Z,13.37
2018-07-12T22:34:09.292Z,14.90
2018-07-12T22:36:46.424Z,15.00
2018-07-12T22:39:18.658Z,15.20
2018-07-12T22:42:03.318Z,12.87
2018-07-12T22:47:38.178Z,15.83
2018-07-12T22:50:22.858Z,14.77
2018-07-12T22:53:14.281Z,13.90
2018-07-12T22:55:56.896Z,15.20
2018-07-12T22:58:27.303Z,16.13
2018-07-12T23:01:15.969Z,16.30
2018-07-12T23:03:58.486Z,15.40
2018-07-12T23:06:26.889Z,14.03
2018-07-12T23:08:55.519Z,18.63
2018-07-12T23:11:25.187Z,17.17
2018-07-12T23:13:56.913Z,14.00
2018-07-12T23:16:25.290Z,13.90
2018-07-12T23:18:53.643Z,18.77
2018-07-12T23:21:34.059Z,13.23
2018-07-12T23:24:06.134Z,21.10
2018-07-12T23:29:34.338Z,15.40
2018-07-12T23:32:12.997Z,17.03
2018-07-12T23:34:50.922Z,14.37
2018-07-12T23:37:24.823Z,15.50
2018-07-12T23:39:57.205Z,17.17
2018-07-12T23:42:29.913Z,22.63
2018-07-12T23:45:01.681Z,16.47
2018-07-12T23:47:42.316Z,17.77
2018-07-12T23:50:14.407Z,20.93
2018-07-12T23:52:46.481Z,16.37
2018-07-12T23:55:18.240Z,23.43
2018-07-12T23:57:50.082Z,15.90
